sensor_id;sensor_type;location;lat;lon;timestamp;temperature;humidity
33269;DHT22;19640;50.944;5.260;2023-09-08T00:02:06;18.50;99.90
33269;DHT22;19640;50.944;5.260;2023-09-08T00:04:32;18.60;99.90
33269;DHT22;19640;50.944;5.260;2023-09-08T00:07:01;18.50;99.90
33269;DHT22;19640;50.944;5.260;2023-09-08T00:09:31;18.10;99.90
33269;DHT22;19640;50.944;5.260;2023-09-08T00:11:57;17.90;99.90
33269;DHT22;19640;50.944;5.260;2023-09-08T00:14:26;17.60;99.90
33269;DHT22;19640;50.944;5.260;2023-09-08T00:16:54;17.40;99.90
33269;DHT22;19640;50.944;5.260;2023-09-08T00:19:20;17.30;99.90
33269;DHT22;19640;50.944;5.260;2023-09-08T00:21:46;17.10;99.90
33269;DHT22;19640;50.944;5.260;2023-09-08T00:24:13;17.10;99.90
33269;DHT22;19640;50.944;5.260;2023-09-08T00:26:41;17.20;99.90
33269;DHT22;19640;50.944;5.260;2023-09-08T00:29:07;17.20;99.90
33269;DHT22;19640;50.944;5.260;2023-09-08T00:31:35;17.00;99.90
33269;DHT22;19640;50.944;5.260;2023-09-08T00:34:00;16.90;99.90
33269;DHT22;19640;50.944;5.260;2023-09-08T00:36:26;16.80;99.90
33269;DHT22;19640;50.944;5.260;2023-09-08T00:38:52;16.80;99.90
33269;DHT22;19640;50.944;5.260;2023-09-08T00:41:19;16.70;99.90
33269;DHT22;19640;50.944;5.260;2023-09-08T00:43:44;16.50;99.90
33269;DHT22;19640;50.944;5.260;2023-09-08T00:46:12;16.50;99.90
33269;DHT22;19640;50.944;5.260;2023-09-08T00:48:38;16.80;99.90
33269;DHT22;19640;50.944;5.260;2023-09-08T00:51:05;17.00;99.90
33269;DHT22;19640;50.944;5.260;2023-09-08T00:53:39;17.20;99.90
33269;DHT22;19640;50.944;5.260;2023-09-08T00:56:07;17.40;99.90
33269;DHT22;19640;50.944;5.260;2023-09-08T00:58:35;17.50;99.90
33269;DHT22;19640;50.944;5.260;2023-09-08T01:01:01;17.60;99.90
33269;DHT22;19640;50.944;5.260;2023-09-08T01:03:27;17.60;99.90
33269;DHT22;19640;50.944;5.260;2023-09-08T01:05:53;17.50;99.90
33269;DHT22;19640;50.944;5.260;2023-09-08T01:08:20;17.30;99.90
33269;DHT22;19640;50.944;5.260;2023-09-08T01:10:46;17.00;99.90
33269;DHT22;19640;50.944;5.260;2023-09-08T01:13:12;16.80;99.90
33269;DHT22;19640;50.944;5.260;2023-09-08T01:15:37;16.70;99.90
33269;DHT22;19640;50.944;5.260;2023-09-08T01:18:03;16.70;99.90
33269;DHT22;19640;50.944;5.260;2023-09-08T01:23:32;16.70;99.90
33269;DHT22;19640;50.944;5.260;2023-09-08T01:26:10;16.60;99.90
33269;DHT22;19640;50.944;5.260;2023-09-08T01:28:39;16.40;99.90
33269;DHT22;19640;50.944;5.260;2023-09-08T01:31:06;16.30;99.90
33269;DHT22;19640;50.944;5.260;2023-09-08T01:33:32;16.30;99.90
33269;DHT22;19640;50.944;5.260;2023-09-08T01:35:58;16.30;99.90
33269;DHT22;19640;50.944;5.260;2023-09-08T01:38:25;16.10;99.90
33269;DHT22;19640;50.944;5.260;2023-09-08T01:40:52;16.00;99.90
33269;DHT22;19640;50.944;5.260;2023-09-08T01:43:17;15.90;99.90
33269;DHT22;19640;50.944;5.260;2023-09-08T01:45:45;15.80;99.90
33269;DHT22;19640;50.944;5.260;2023-09-08T01:48:11;15.90;99.90
33269;DHT22;19640;50.944;5.260;2023-09-08T01:50:36;15.90;99.90
33269;DHT22;19640;50.944;5.260;2023-09-08T01:53:02;15.90;99.90
33269;DHT22;19640;50.944;5.260;2023-09-08T01:55:28;16.00;99.90
33269;DHT22;19640;50.944;5.260;2023-09-08T01:57:53;16.20;99.90
33269;DHT22;19640;50.944;5.260;2023-09-08T02:00:19;16.10;99.90
33269;DHT22;19640;50.944;5.260;2023-09-08T02:02:45;16.00;99.90
33269;DHT22;19640;50.944;5.260;2023-09-08T02:05:11;15.90;99.90
33269;DHT22;19640;50.944;5.260;2023-09-08T02:07:37;15.80;99.90
33269;DHT22;19640;50.944;5.260;2023-09-08T02:10:05;15.70;99.90
33269;DHT22;19640;50.944;5.260;2023-09-08T02:12:36;15.60;99.90
33269;DHT22;19640;50.944;5.260;2023-09-08T02:15:02;15.60;99.90
33269;DHT22;19640;50.944;5.260;2023-09-08T02:17:29;15.70;99.90
33269;DHT22;19640;50.944;5.260;2023-09-08T02:19:55;15.80;99.90
33269;DHT22;19640;50.944;5.260;2023-09-08T02:22:20;15.90;99.90
33269;DHT22;19640;50.944;5.260;2023-09-08T02:24:46;15.90;99.90
33269;DHT22;19640;50.944;5.260;2023-09-08T02:27:11;16.00;99.90
33269;DHT22;19640;50.944;5.260;2023-09-08T02:29:37;15.90;99.90
33269;DHT22;19640;50.944;5.260;2023-09-08T02:32:03;15.80;99.90
33269;DHT22;19640;50.944;5.260;2023-09-08T02:34:29;15.60;99.90
33269;DHT22;19640;50.944;5.260;2023-09-08T02:36:55;15.50;99.90
33269;DHT22;19640;50.944;5.260;2023-09-08T02:39:20;15.50;99.90
33269;DHT22;19640;50.944;5.260;2023-09-08T02:41:49;15.60;99.90
33269;DHT22;19640;50.944;5.260;2023-09-08T02:44:15;15.60;99.90
33269;DHT22;19640;50.944;5.260;2023-09-08T02:46:44;15.60;99.90
33269;DHT22;19640;50.944;5.260;2023-09-08T02:49:09;15.60;99.90
33269;DHT22;19640;50.944;5.260;2023-09-08T02:51:36;15.50;99.90
33269;DHT22;19640;50.944;5.260;2023-09-08T02:54:03;15.40;99.90
33269;DHT22;19640;50.944;5.260;2023-09-08T02:56:28;15.50;99.90
33269;DHT22;19640;50.944;5.260;2023-09-08T02:58:54;15.50;99.90
33269;DHT22;19640;50.944;5.260;2023-09-08T03:01:20;15.50;99.90
33269;DHT22;19640;50.944;5.260;2023-09-08T03:03:48;15.50;99.90
33269;DHT22;19640;50.944;5.260;2023-09-08T03:06:17;15.50;99.90
33269;DHT22;19640;50.944;5.260;2023-09-08T03:08:43;15.50;99.90
33269;DHT22;19640;50.944;5.260;2023-09-08T03:11:08;15.60;99.90
33269;DHT22;19640;50.944;5.260;2023-09-08T03:13:35;15.70;99.90
33269;DHT22;19640;50.944;5.260;2023-09-08T03:16:07;15.90;99.90
33269;DHT22;19640;50.944;5.260;2023-09-08T03:18:34;16.00;99.90
33269;DHT22;19640;50.944;5.260;2023-09-08T03:21:05;16.00;99.90
33269;DHT22;19640;50.944;5.260;2023-09-08T03:23:38;15.80;99.90
33269;DHT22;19640;50.944;5.260;2023-09-08T03:26:03;15.50;99.90
33269;DHT22;19640;50.944;5.260;2023-09-08T03:28:30;15.40;99.90
33269;DHT22;19640;50.944;5.260;2023-09-08T03:30:56;15.40;99.90
33269;DHT22;19640;50.944;5.260;2023-09-08T03:33:23;15.30;99.90
33269;DHT22;19640;50.944;5.260;2023-09-08T03:35:49;15.20;99.90
33269;DHT22;19640;50.944;5.260;2023-09-08T03:38:14;15.20;99.90
33269;DHT22;19640;50.944;5.260;2023-09-08T03:40:40;15.20;99.90
33269;DHT22;19640;50.944;5.260;2023-09-08T03:43:06;15.10;99.90
33269;DHT22;19640;50.944;5.260;2023-09-08T03:45:33;15.20;99.90
33269;DHT22;19640;50.944;5.260;2023-09-08T03:47:58;15.20;99.90
33269;DHT22;19640;50.944;5.260;2023-09-08T03:50:26;15.20;99.90
33269;DHT22;19640;50.944;5.260;2023-09-08T03:52:54;15.30;99.90
33269;DHT22;19640;50.944;5.260;2023-09-08T03:55:20;15.20;99.90
33269;DHT22;19640;50.944;5.260;2023-09-08T03:57:46;15.10;99.90
33269;DHT22;19640;50.944;5.260;2023-09-08T04:00:12;15.10;99.90
33269;DHT22;19640;50.944;5.260;2023-09-08T04:02:39;15.10;99.90
33269;DHT22;19640;50.944;5.260;2023-09-08T04:05:06;15.10;99.90
33269;DHT22;19640;50.944;5.260;2023-09-08T04:07:32;15.00;99.90
33269;DHT22;19640;50.944;5.260;2023-09-08T04:09:58;15.00;99.90
33269;DHT22;19640;50.944;5.260;2023-09-08T04:12:24;15.00;99.90
33269;DHT22;19640;50.944;5.260;2023-09-08T04:14:50;15.00;99.90
33269;DHT22;19640;50.944;5.260;2023-09-08T04:17:15;15.00;99.90
33269;DHT22;19640;50.944;5.260;2023-09-08T04:19:41;14.90;99.90
33269;DHT22;19640;50.944;5.260;2023-09-08T04:22:08;14.80;99.90
33269;DHT22;19640;50.944;5.260;2023-09-08T04:24:36;14.80;99.90
33269;DHT22;19640;50.944;5.260;2023-09-08T04:27:03;15.00;99.90
33269;DHT22;19640;50.944;5.260;2023-09-08T04:29:28;14.90;99.90
33269;DHT22;19640;50.944;5.260;2023-09-08T04:31:54;15.00;99.90
33269;DHT22;19640;50.944;5.260;2023-09-08T04:34:20;14.90;99.90
33269;DHT22;19640;50.944;5.260;2023-09-08T04:36:45;14.90;99.90
33269;DHT22;19640;50.944;5.260;2023-09-08T04:39:11;14.90;99.90
33269;DHT22;19640;50.944;5.260;2023-09-08T04:41:37;14.90;99.90
33269;DHT22;19640;50.944;5.260;2023-09-08T04:44:04;15.00;99.90
33269;DHT22;19640;50.944;5.260;2023-09-08T04:46:30;15.00;99.90
33269;DHT22;19640;50.944;5.260;2023-09-08T04:48:56;15.00;99.90
33269;DHT22;19640;50.944;5.260;2023-09-08T04:51:21;14.90;99.90
33269;DHT22;19640;50.944;5.260;2023-09-08T04:53:47;14.90;99.90
33269;DHT22;19640;50.944;5.260;2023-09-08T04:56:13;14.90;99.90
33269;DHT22;19640;50.944;5.260;2023-09-08T04:58:39;15.00;99.90
33269;DHT22;19640;50.944;5.260;2023-09-08T05:01:05;14.90;99.90
33269;DHT22;19640;50.944;5.260;2023-09-08T05:03:31;14.90;99.90
33269;DHT22;19640;50.944;5.260;2023-09-08T05:05:59;14.80;99.90
33269;DHT22;19640;50.944;5.260;2023-09-08T05:08:26;14.80;99.90
33269;DHT22;19640;50.944;5.260;2023-09-08T05:10:52;14.70;99.90
33269;DHT22;19640;50.944;5.260;2023-09-08T05:13:18;14.70;99.90
33269;DHT22;19640;50.944;5.260;2023-09-08T05:15:43;14.70;99.90
33269;DHT22;19640;50.944;5.260;2023-09-08T05:18:13;14.70;99.90
33269;DHT22;19640;50.944;5.260;2023-09-08T05:20:39;14.70;99.90
33269;DHT22;19640;50.944;5.260;2023-09-08T05:23:06;15.00;99.90
33269;DHT22;19640;50.944;5.260;2023-09-08T05:25:31;15.60;99.90
33269;DHT22;19640;50.944;5.260;2023-09-08T05:27:57;16.00;99.90
33269;DHT22;19640;50.944;5.260;2023-09-08T05:30:23;16.10;99.90
33269;DHT22;19640;50.944;5.260;2023-09-08T05:32:49;16.20;99.90
33269;DHT22;19640;50.944;5.260;2023-09-08T05:35:14;16.30;99.90
33269;DHT22;19640;50.944;5.260;2023-09-08T05:37:40;16.40;99.90
33269;DHT22;19640;50.944;5.260;2023-09-08T05:40:06;16.40;99.90
33269;DHT22;19640;50.944;5.260;2023-09-08T05:42:33;16.20;99.90
33269;DHT22;19640;50.944;5.260;2023-09-08T05:44:59;16.00;99.90
33269;DHT22;19640;50.944;5.260;2023-09-08T05:47:24;16.10;99.90
33269;DHT22;19640;50.944;5.260;2023-09-08T05:49:50;16.10;99.90
33269;DHT22;19640;50.944;5.260;2023-09-08T05:52:15;16.10;99.90
33269;DHT22;19640;50.944;5.260;2023-09-08T05:54:41;15.90;99.90
33269;DHT22;19640;50.944;5.260;2023-09-08T05:57:07;15.80;99.90
33269;DHT22;19640;50.944;5.260;2023-09-08T05:59:33;15.80;99.90
33269;DHT22;19640;50.944;5.260;2023-09-08T06:01:58;15.80;99.90
33269;DHT22;19640;50.944;5.260;2023-09-08T06:04:24;16.00;99.90
33269;DHT22;19640;50.944;5.260;2023-09-08T06:06:50;16.30;99.90
33269;DHT22;19640;50.944;5.260;2023-09-08T06:09:15;16.60;99.90
33269;DHT22;19640;50.944;5.260;2023-09-08T06:11:42;16.70;99.90
33269;DHT22;19640;50.944;5.260;2023-09-08T06:14:07;16.50;99.90
33269;DHT22;19640;50.944;5.260;2023-09-08T06:16:33;16.70;99.90
33269;DHT22;19640;50.944;5.260;2023-09-08T06:18:59;16.80;99.90
33269;DHT22;19640;50.944;5.260;2023-09-08T06:21:25;17.00;99.90
33269;DHT22;19640;50.944;5.260;2023-09-08T06:23:51;17.20;99.90
33269;DHT22;19640;50.944;5.260;2023-09-08T06:26:17;17.10;99.90
33269;DHT22;19640;50.944;5.260;2023-09-08T06:28:43;17.20;99.90
33269;DHT22;19640;50.944;5.260;2023-09-08T06:31:09;17.20;99.90
33269;DHT22;19640;50.944;5.260;2023-09-08T06:33:35;17.40;99.90
33269;DHT22;19640;50.944;5.260;2023-09-08T06:36:01;17.50;99.90
33269;DHT22;19640;50.944;5.260;2023-09-08T06:38:26;17.70;99.90
33269;DHT22;19640;50.944;5.260;2023-09-08T06:40:52;17.90;99.90
33269;DHT22;19640;50.944;5.260;2023-09-08T06:43:19;18.10;99.90
33269;DHT22;19640;50.944;5.260;2023-09-08T06:45:49;18.00;99.90
33269;DHT22;19640;50.944;5.260;2023-09-08T06:48:15;18.00;99.90
33269;DHT22;19640;50.944;5.260;2023-09-08T06:50:41;18.20;99.90
33269;DHT22;19640;50.944;5.260;2023-09-08T06:53:07;18.40;99.90
33269;DHT22;19640;50.944;5.260;2023-09-08T06:55:33;18.50;99.90
33269;DHT22;19640;50.944;5.260;2023-09-08T06:57:58;18.70;99.90
33269;DHT22;19640;50.944;5.260;2023-09-08T07:00:24;18.70;99.90
33269;DHT22;19640;50.944;5.260;2023-09-08T07:02:50;18.80;99.90
33269;DHT22;19640;50.944;5.260;2023-09-08T07:05:16;18.90;99.90
33269;DHT22;19640;50.944;5.260;2023-09-08T07:07:42;19.00;99.90
33269;DHT22;19640;50.944;5.260;2023-09-08T07:10:08;19.10;99.90
33269;DHT22;19640;50.944;5.260;2023-09-08T07:12:34;19.20;99.90
33269;DHT22;19640;50.944;5.260;2023-09-08T07:15:00;19.40;99.90
33269;DHT22;19640;50.944;5.260;2023-09-08T07:17:26;19.50;99.90
33269;DHT22;19640;50.944;5.260;2023-09-08T07:19:52;19.70;99.90
33269;DHT22;19640;50.944;5.260;2023-09-08T07:22:18;19.90;99.90
33269;DHT22;19640;50.944;5.260;2023-09-08T07:24:44;20.90;99.90
33269;DHT22;19640;50.944;5.260;2023-09-08T07:27:10;22.40;99.90
33269;DHT22;19640;50.944;5.260;2023-09-08T07:29:39;24.00;99.90
33269;DHT22;19640;50.944;5.260;2023-09-08T07:32:05;25.00;99.90
33269;DHT22;19640;50.944;5.260;2023-09-08T07:34:31;25.90;99.90
33269;DHT22;19640;50.944;5.260;2023-09-08T07:36:57;26.80;99.90
33269;DHT22;19640;50.944;5.260;2023-09-08T07:39:23;28.10;99.90
33269;DHT22;19640;50.944;5.260;2023-09-08T07:41:49;29.40;99.90
33269;DHT22;19640;50.944;5.260;2023-09-08T07:44:15;29.60;99.90
33269;DHT22;19640;50.944;5.260;2023-09-08T07:46:42;30.50;99.90
33269;DHT22;19640;50.944;5.260;2023-09-08T07:49:09;30.70;99.70
33269;DHT22;19640;50.944;5.260;2023-09-08T07:51:35;31.00;99.90
33269;DHT22;19640;50.944;5.260;2023-09-08T07:54:00;31.20;99.90
33269;DHT22;19640;50.944;5.260;2023-09-08T07:56:28;32.10;99.00
33269;DHT22;19640;50.944;5.260;2023-09-08T07:58:54;32.30;96.70
33269;DHT22;19640;50.944;5.260;2023-09-08T08:01:20;31.90;98.00
33269;DHT22;19640;50.944;5.260;2023-09-08T08:03:45;32.30;96.80
33269;DHT22;19640;50.944;5.260;2023-09-08T08:06:11;29.40;98.40
33269;DHT22;19640;50.944;5.260;2023-09-08T08:08:37;27.70;99.90
33269;DHT22;19640;50.944;5.260;2023-09-08T08:11:12;26.40;99.90
33269;DHT22;19640;50.944;5.260;2023-09-08T08:13:37;25.50;99.90
33269;DHT22;19640;50.944;5.260;2023-09-08T08:16:03;25.50;99.90
33269;DHT22;19640;50.944;5.260;2023-09-08T08:18:29;25.60;99.90
33269;DHT22;19640;50.944;5.260;2023-09-08T08:20:54;25.10;99.90
33269;DHT22;19640;50.944;5.260;2023-09-08T08:23:20;24.70;99.90
33269;DHT22;19640;50.944;5.260;2023-09-08T08:25:46;24.50;99.90
33269;DHT22;19640;50.944;5.260;2023-09-08T08:28:12;24.30;99.90
33269;DHT22;19640;50.944;5.260;2023-09-08T08:30:37;24.30;99.90
33269;DHT22;19640;50.944;5.260;2023-09-08T08:33:03;24.10;99.90
33269;DHT22;19640;50.944;5.260;2023-09-08T08:35:29;24.00;99.90
33269;DHT22;19640;50.944;5.260;2023-09-08T08:37:58;24.00;99.90
33269;DHT22;19640;50.944;5.260;2023-09-08T08:40:24;24.00;99.90
33269;DHT22;19640;50.944;5.260;2023-09-08T08:42:55;24.20;99.90
33269;DHT22;19640;50.944;5.260;2023-09-08T08:45:25;24.10;99.90
33269;DHT22;19640;50.944;5.260;2023-09-08T08:47:52;24.40;99.90
33269;DHT22;19640;50.944;5.260;2023-09-08T08:50:19;24.50;99.90
33269;DHT22;19640;50.944;5.260;2023-09-08T08:52:45;24.50;99.90
33269;DHT22;19640;50.944;5.260;2023-09-08T08:55:11;24.40;99.90
33269;DHT22;19640;50.944;5.260;2023-09-08T08:57:38;24.60;99.90
33269;DHT22;19640;50.944;5.260;2023-09-08T09:00:09;24.60;99.90
33269;DHT22;19640;50.944;5.260;2023-09-08T09:02:37;24.70;99.90
33269;DHT22;19640;50.944;5.260;2023-09-08T09:05:05;24.80;99.90
33269;DHT22;19640;50.944;5.260;2023-09-08T09:07:32;24.90;99.90
33269;DHT22;19640;50.944;5.260;2023-09-08T09:09:58;25.00;99.90
33269;DHT22;19640;50.944;5.260;2023-09-08T09:12:24;25.00;99.90
33269;DHT22;19640;50.944;5.260;2023-09-08T09:14:54;25.20;99.90
33269;DHT22;19640;50.944;5.260;2023-09-08T09:17:19;25.10;99.90
33269;DHT22;19640;50.944;5.260;2023-09-08T09:19:45;24.90;99.90
33269;DHT22;19640;50.944;5.260;2023-09-08T09:22:11;25.10;99.90
33269;DHT22;19640;50.944;5.260;2023-09-08T09:24:41;25.30;99.90
33269;DHT22;19640;50.944;5.260;2023-09-08T09:27:10;25.30;99.90
33269;DHT22;19640;50.944;5.260;2023-09-08T09:29:46;25.40;99.90
33269;DHT22;19640;50.944;5.260;2023-09-08T09:32:12;25.40;99.90
33269;DHT22;19640;50.944;5.260;2023-09-08T09:34:51;25.40;99.90
33269;DHT22;19640;50.944;5.260;2023-09-08T09:37:19;25.50;99.90
33269;DHT22;19640;50.944;5.260;2023-09-08T09:39:54;25.80;99.90
33269;DHT22;19640;50.944;5.260;2023-09-08T09:42:21;25.90;99.90
33269;DHT22;19640;50.944;5.260;2023-09-08T09:44:51;25.80;99.90
33269;DHT22;19640;50.944;5.260;2023-09-08T09:47:17;25.80;99.90
33269;DHT22;19640;50.944;5.260;2023-09-08T09:49:45;25.90;99.90
33269;DHT22;19640;50.944;5.260;2023-09-08T09:52:20;25.90;99.90
33269;DHT22;19640;50.944;5.260;2023-09-08T09:54:46;26.00;99.90
33269;DHT22;19640;50.944;5.260;2023-09-08T09:57:14;26.00;99.90
33269;DHT22;19640;50.944;5.260;2023-09-08T09:59:43;26.10;99.90
33269;DHT22;19640;50.944;5.260;2023-09-08T10:02:13;26.20;99.90
33269;DHT22;19640;50.944;5.260;2023-09-08T10:04:40;26.20;99.90
33269;DHT22;19640;50.944;5.260;2023-09-08T10:07:07;26.30;99.90
33269;DHT22;19640;50.944;5.260;2023-09-08T10:09:33;26.40;99.90
33269;DHT22;19640;50.944;5.260;2023-09-08T10:12:03;26.50;99.90
33269;DHT22;19640;50.944;5.260;2023-09-08T10:14:30;26.60;99.90
33269;DHT22;19640;50.944;5.260;2023-09-08T10:16:59;26.60;99.90
33269;DHT22;19640;50.944;5.260;2023-09-08T10:19:26;26.70;99.90
33269;DHT22;19640;50.944;5.260;2023-09-08T10:21:55;26.50;99.90
33269;DHT22;19640;50.944;5.260;2023-09-08T10:24:33;26.40;99.90
33269;DHT22;19640;50.944;5.260;2023-09-08T10:27:09;26.50;99.90
33269;DHT22;19640;50.944;5.260;2023-09-08T10:29:36;26.50;99.90
33269;DHT22;19640;50.944;5.260;2023-09-08T10:32:02;26.50;99.90
33269;DHT22;19640;50.944;5.260;2023-09-08T10:34:30;26.40;99.90
33269;DHT22;19640;50.944;5.260;2023-09-08T10:36:56;26.60;99.90
33269;DHT22;19640;50.944;5.260;2023-09-08T10:39:33;26.80;99.90
33269;DHT22;19640;50.944;5.260;2023-09-08T10:42:22;27.00;99.90
33269;DHT22;19640;50.944;5.260;2023-09-08T10:45:00;27.10;99.90
33269;DHT22;19640;50.944;5.260;2023-09-08T10:47:55;27.20;99.90
33269;DHT22;19640;50.944;5.260;2023-09-08T10:50:38;27.20;99.90
33269;DHT22;19640;50.944;5.260;2023-09-08T10:55:45;27.20;99.90
33269;DHT22;19640;50.944;5.260;2023-09-08T10:58:18;27.30;99.90
33269;DHT22;19640;50.944;5.260;2023-09-08T11:00:47;27.30;99.90
33269;DHT22;19640;50.944;5.260;2023-09-08T11:03:14;27.40;99.90
33269;DHT22;19640;50.944;5.260;2023-09-08T11:05:50;27.30;99.90
33269;DHT22;19640;50.944;5.260;2023-09-08T11:08:18;27.40;99.90
33269;DHT22;19640;50.944;5.260;2023-09-08T11:10:44;27.50;99.90
33269;DHT22;19640;50.944;5.260;2023-09-08T11:13:10;27.60;99.90
33269;DHT22;19640;50.944;5.260;2023-09-08T11:15:38;27.80;99.90
33269;DHT22;19640;50.944;5.260;2023-09-08T11:18:05;27.70;99.90
33269;DHT22;19640;50.944;5.260;2023-09-08T11:20:31;27.70;99.90
33269;DHT22;19640;50.944;5.260;2023-09-08T11:22:58;27.80;99.90
33269;DHT22;19640;50.944;5.260;2023-09-08T11:25:25;27.90;99.90
33269;DHT22;19640;50.944;5.260;2023-09-08T11:27:50;28.00;99.90
33269;DHT22;19640;50.944;5.260;2023-09-08T11:30:16;27.90;99.90
33269;DHT22;19640;50.944;5.260;2023-09-08T11:32:42;28.00;99.90
33269;DHT22;19640;50.944;5.260;2023-09-08T11:35:09;28.10;99.90
33269;DHT22;19640;50.944;5.260;2023-09-08T11:37:39;28.30;99.90
33269;DHT22;19640;50.944;5.260;2023-09-08T11:40:08;28.30;99.90
33269;DHT22;19640;50.944;5.260;2023-09-08T11:42:41;28.30;99.90
33269;DHT22;19640;50.944;5.260;2023-09-08T11:45:18;28.10;99.90
33269;DHT22;19640;50.944;5.260;2023-09-08T11:47:46;28.20;99.90
33269;DHT22;19640;50.944;5.260;2023-09-08T11:50:14;28.10;99.90
33269;DHT22;19640;50.944;5.260;2023-09-08T11:52:51;28.10;99.90
33269;DHT22;19640;50.944;5.260;2023-09-08T11:55:18;28.10;99.90
33269;DHT22;19640;50.944;5.260;2023-09-08T11:57:47;28.20;99.90
33269;DHT22;19640;50.944;5.260;2023-09-08T12:00:14;28.30;99.90
33269;DHT22;19640;50.944;5.260;2023-09-08T12:02:42;28.30;99.90
33269;DHT22;19640;50.944;5.260;2023-09-08T12:05:24;28.30;99.90
33269;DHT22;19640;50.944;5.260;2023-09-08T12:07:55;28.40;99.90
33269;DHT22;19640;50.944;5.260;2023-09-08T12:10:22;28.40;99.90
33269;DHT22;19640;50.944;5.260;2023-09-08T12:12:50;28.40;99.90
33269;DHT22;19640;50.944;5.260;2023-09-08T12:15:45;28.30;99.90
33269;DHT22;19640;50.944;5.260;2023-09-08T12:18:13;28.40;99.90
33269;DHT22;19640;50.944;5.260;2023-09-08T12:20:41;28.50;99.90
33269;DHT22;19640;50.944;5.260;2023-09-08T12:23:20;28.60;99.90
33269;DHT22;19640;50.944;5.260;2023-09-08T12:25:51;28.70;99.90
33269;DHT22;19640;50.944;5.260;2023-09-08T12:28:19;28.60;99.90
33269;DHT22;19640;50.944;5.260;2023-09-08T12:30:45;28.60;99.90
33269;DHT22;19640;50.944;5.260;2023-09-08T12:33:10;28.50;99.90
33269;DHT22;19640;50.944;5.260;2023-09-08T12:35:36;28.50;99.90
33269;DHT22;19640;50.944;5.260;2023-09-08T12:38:05;28.50;99.90
33269;DHT22;19640;50.944;5.260;2023-09-08T12:40:34;28.60;99.90
33269;DHT22;19640;50.944;5.260;2023-09-08T12:43:00;28.80;99.90
33269;DHT22;19640;50.944;5.260;2023-09-08T12:45:27;28.80;99.90
33269;DHT22;19640;50.944;5.260;2023-09-08T12:47:53;28.80;99.90
33269;DHT22;19640;50.944;5.260;2023-09-08T12:50:20;28.60;99.90
33269;DHT22;19640;50.944;5.260;2023-09-08T12:52:46;28.60;99.90
33269;DHT22;19640;50.944;5.260;2023-09-08T12:55:12;28.70;99.90
33269;DHT22;19640;50.944;5.260;2023-09-08T12:57:38;28.60;99.90
33269;DHT22;19640;50.944;5.260;2023-09-08T13:00:04;28.60;99.90
33269;DHT22;19640;50.944;5.260;2023-09-08T13:02:30;28.60;99.90
33269;DHT22;19640;50.944;5.260;2023-09-08T13:04:56;28.90;99.90
33269;DHT22;19640;50.944;5.260;2023-09-08T13:07:22;28.90;99.90
33269;DHT22;19640;50.944;5.260;2023-09-08T13:09:47;28.90;99.90
33269;DHT22;19640;50.944;5.260;2023-09-08T13:12:13;28.90;99.90
33269;DHT22;19640;50.944;5.260;2023-09-08T13:14:40;29.00;99.90
33269;DHT22;19640;50.944;5.260;2023-09-08T13:17:06;28.90;99.90
33269;DHT22;19640;50.944;5.260;2023-09-08T13:19:32;28.90;99.90
33269;DHT22;19640;50.944;5.260;2023-09-08T13:21:58;28.90;99.90
33269;DHT22;19640;50.944;5.260;2023-09-08T13:24:24;28.90;99.90
33269;DHT22;19640;50.944;5.260;2023-09-08T13:26:50;29.10;99.90
33269;DHT22;19640;50.944;5.260;2023-09-08T13:29:17;29.10;99.90
33269;DHT22;19640;50.944;5.260;2023-09-08T13:31:47;29.10;99.90
33269;DHT22;19640;50.944;5.260;2023-09-08T13:34:13;29.10;99.90
33269;DHT22;19640;50.944;5.260;2023-09-08T13:36:42;29.10;99.90
33269;DHT22;19640;50.944;5.260;2023-09-08T13:39:09;29.10;99.90
33269;DHT22;19640;50.944;5.260;2023-09-08T13:41:55;29.10;99.90
33269;DHT22;19640;50.944;5.260;2023-09-08T13:44:23;29.10;99.90
33269;DHT22;19640;50.944;5.260;2023-09-08T13:46:50;29.10;99.90
33269;DHT22;19640;50.944;5.260;2023-09-08T13:49:15;29.10;99.90
33269;DHT22;19640;50.944;5.260;2023-09-08T13:51:45;29.20;99.90
33269;DHT22;19640;50.944;5.260;2023-09-08T13:54:12;29.10;99.90
33269;DHT22;19640;50.944;5.260;2023-09-08T13:56:39;29.20;99.90
33269;DHT22;19640;50.944;5.260;2023-09-08T13:59:05;29.10;99.90
33269;DHT22;19640;50.944;5.260;2023-09-08T14:01:37;29.10;99.90
33269;DHT22;19640;50.944;5.260;2023-09-08T14:04:03;29.20;99.90
33269;DHT22;19640;50.944;5.260;2023-09-08T14:06:30;29.20;99.90
33269;DHT22;19640;50.944;5.260;2023-09-08T14:08:56;29.20;99.90
33269;DHT22;19640;50.944;5.260;2023-09-08T14:11:22;29.40;99.90
33269;DHT22;19640;50.944;5.260;2023-09-08T14:13:48;29.30;99.90
33269;DHT22;19640;50.944;5.260;2023-09-08T14:16:18;29.30;99.90
33269;DHT22;19640;50.944;5.260;2023-09-08T14:18:43;29.40;99.90
33269;DHT22;19640;50.944;5.260;2023-09-08T14:21:10;29.50;99.90
33269;DHT22;19640;50.944;5.260;2023-09-08T14:23:36;29.70;99.90
33269;DHT22;19640;50.944;5.260;2023-09-08T14:26:05;30.00;99.90
33269;DHT22;19640;50.944;5.260;2023-09-08T14:28:31;29.80;99.90
33269;DHT22;19640;50.944;5.260;2023-09-08T14:31:00;29.60;99.90
33269;DHT22;19640;50.944;5.260;2023-09-08T14:33:28;29.50;99.90
33269;DHT22;19640;50.944;5.260;2023-09-08T14:35:54;29.60;99.90
33269;DHT22;19640;50.944;5.260;2023-09-08T14:38:21;29.30;99.90
33269;DHT22;19640;50.944;5.260;2023-09-08T14:41:05;29.50;99.90
33269;DHT22;19640;50.944;5.260;2023-09-08T14:43:31;29.50;99.90
33269;DHT22;19640;50.944;5.260;2023-09-08T14:45:58;29.50;99.90
33269;DHT22;19640;50.944;5.260;2023-09-08T14:48:24;29.60;99.90
33269;DHT22;19640;50.944;5.260;2023-09-08T14:50:50;29.40;99.90
33269;DHT22;19640;50.944;5.260;2023-09-08T14:53:17;29.50;99.90
33269;DHT22;19640;50.944;5.260;2023-09-08T14:55:43;29.50;99.90
33269;DHT22;19640;50.944;5.260;2023-09-08T14:58:11;29.50;99.90
33269;DHT22;19640;50.944;5.260;2023-09-08T15:00:38;29.60;99.90
33269;DHT22;19640;50.944;5.260;2023-09-08T15:03:04;29.60;99.90
33269;DHT22;19640;50.944;5.260;2023-09-08T15:05:32;29.50;99.90
33269;DHT22;19640;50.944;5.260;2023-09-08T15:07:59;29.40;99.90
33269;DHT22;19640;50.944;5.260;2023-09-08T15:10:25;29.30;99.90
33269;DHT22;19640;50.944;5.260;2023-09-08T15:12:51;29.20;99.90
33269;DHT22;19640;50.944;5.260;2023-09-08T15:15:16;29.30;99.90
33269;DHT22;19640;50.944;5.260;2023-09-08T15:17:44;29.30;99.90
33269;DHT22;19640;50.944;5.260;2023-09-08T15:20:10;29.30;99.90
33269;DHT22;19640;50.944;5.260;2023-09-08T15:22:36;29.20;99.90
33269;DHT22;19640;50.944;5.260;2023-09-08T15:25:01;29.30;99.90
33269;DHT22;19640;50.944;5.260;2023-09-08T15:27:27;29.30;99.90
33269;DHT22;19640;50.944;5.260;2023-09-08T15:29:53;29.20;99.90
33269;DHT22;19640;50.944;5.260;2023-09-08T15:32:20;29.10;99.90
33269;DHT22;19640;50.944;5.260;2023-09-08T15:34:49;29.10;99.90
33269;DHT22;19640;50.944;5.260;2023-09-08T15:37:17;29.20;99.90